sensor_id;sensor_type;location;lat;lon;timestamp;P1;P2;P0
62631;PMS5003;48703;51.248;-0.546;2022-11-15T00:01:05;2.59;2.03;
62631;PMS5003;48703;51.248;-0.546;2022-11-15T00:04:04;2.09;1.61;
62631;PMS5003;48703;51.248;-0.546;2022-11-15T00:07:05;2.10;2.09;
62631;PMS5003;48703;51.248;-0.546;2022-11-15T00:10:07;2.01;1.67;
62631;PMS5003;48703;51.248;-0.546;2022-11-15T00:13:09;3.79;1.84;
62631;PMS5003;48703;51.248;-0.546;2022-11-15T00:16:10;2.07;1.94;
62631;PMS5003;48703;51.248;-0.546;2022-11-15T00:19:11;2.26;0.97;
62631;PMS5003;48703;51.248;-0.546;2022-11-15T00:22:13;1.41;1.20;
62631;PMS5003;48703;51.248;-0.546;2022-11-15T00:25:15;1.97;1.74;
62631;PMS5003;48703;51.248;-0.546;2022-11-15T00:28:16;2.89;1.76;
62631;PMS5003;48703;51.248;-0.546;2022-11-15T00:31:18;3.49;1.93;
62631;PMS5003;48703;51.248;-0.546;2022-11-15T00:34:19;3.14;1.64;
62631;PMS5003;48703;51.248;-0.546;2022-11-15T00:37:21;3.04;1.77;
62631;PMS5003;48703;51.248;-0.546;2022-11-15T00:40:22;3.43;2.36;
62631;PMS5003;48703;51.248;-0.546;2022-11-15T00:43:24;2.62;2.48;
62631;PMS5003;48703;51.248;-0.546;2022-11-15T00:46:25;2.99;1.86;
62631;PMS5003;48703;51.248;-0.546;2022-11-15T00:49:27;2.69;2.69;
62631;PMS5003;48703;51.248;-0.546;2022-11-15T00:52:29;2.69;1.29;
62631;PMS5003;48703;51.248;-0.546;2022-11-15T00:55:30;2.70;1.44;
62631;PMS5003;48703;51.248;-0.546;2022-11-15T00:58:32;2.31;1.60;
62631;PMS5003;48703;51.248;-0.546;2022-11-15T01:01:34;2.81;2.41;
62631;PMS5003;48703;51.248;-0.546;2022-11-15T01:04:35;1.86;1.29;
62631;PMS5003;48703;51.248;-0.546;2022-11-15T01:07:37;1.80;1.37;
62631;PMS5003;48703;51.248;-0.546;2022-11-15T01:10:38;1.76;0.90;
62631;PMS5003;48703;51.248;-0.546;2022-11-15T01:13:40;1.39;1.39;
62631;PMS5003;48703;51.248;-0.546;2022-11-15T01:16:42;1.27;1.24;
62631;PMS5003;48703;51.248;-0.546;2022-11-15T01:19:43;1.44;1.36;
62631;PMS5003;48703;51.248;-0.546;2022-11-15T01:22:45;2.49;1.79;
62631;PMS5003;48703;51.248;-0.546;2022-11-15T01:25:47;2.70;2.01;
62631;PMS5003;48703;51.248;-0.546;2022-11-15T01:28:48;1.79;1.04;
62631;PMS5003;48703;51.248;-0.546;2022-11-15T01:31:50;1.49;1.06;
62631;PMS5003;48703;51.248;-0.546;2022-11-15T01:34:51;2.14;1.53;
62631;PMS5003;48703;51.248;-0.546;2022-11-15T01:37:53;2.54;1.34;
62631;PMS5003;48703;51.248;-0.546;2022-11-15T01:40:55;2.81;2.56;
62631;PMS5003;48703;51.248;-0.546;2022-11-15T01:43:57;2.50;1.64;
62631;PMS5003;48703;51.248;-0.546;2022-11-15T01:46:59;1.57;1.57;
62631;PMS5003;48703;51.248;-0.546;2022-11-15T01:50:01;2.60;2.43;
62631;PMS5003;48703;51.248;-0.546;2022-11-15T01:53:01;3.19;1.97;
62631;PMS5003;48703;51.248;-0.546;2022-11-15T01:56:04;2.29;1.99;
62631;PMS5003;48703;51.248;-0.546;2022-11-15T01:59:05;2.99;2.33;
62631;PMS5003;48703;51.248;-0.546;2022-11-15T02:02:07;3.01;3.01;
62631;PMS5003;48703;51.248;-0.546;2022-11-15T02:05:08;1.90;1.60;
62631;PMS5003;48703;51.248;-0.546;2022-11-15T02:08:10;1.63;1.54;
62631;PMS5003;48703;51.248;-0.546;2022-11-15T02:11:11;0.94;0.94;
62631;PMS5003;48703;51.248;-0.546;2022-11-15T02:14:13;1.74;1.37;
62631;PMS5003;48703;51.248;-0.546;2022-11-15T02:17:20;3.06;2.51;
62631;PMS5003;48703;51.248;-0.546;2022-11-15T02:19:28;1.11;1.09;
62631;PMS5003;48703;51.248;-0.546;2022-11-15T02:22:24;2.16;1.67;
62631;PMS5003;48703;51.248;-0.546;2022-11-15T02:25:33;1.30;0.87;
62631;PMS5003;48703;51.248;-0.546;2022-11-15T02:28:35;2.66;2.10;
62631;PMS5003;48703;51.248;-0.546;2022-11-15T02:31:26;2.30;1.49;
62631;PMS5003;48703;51.248;-0.546;2022-11-15T02:34:26;1.23;1.23;
62631;PMS5003;48703;51.248;-0.546;2022-11-15T02:37:30;1.90;1.61;
62631;PMS5003;48703;51.248;-0.546;2022-11-15T02:40:33;2.70;1.84;
62631;PMS5003;48703;51.248;-0.546;2022-11-15T02:43:33;2.60;1.39;
62631;PMS5003;48703;51.248;-0.546;2022-11-15T02:46:34;1.79;0.89;
62631;PMS5003;48703;51.248;-0.546;2022-11-15T02:49:33;1.47;0.97;
62631;PMS5003;48703;51.248;-0.546;2022-11-15T02:52:33;1.04;1.04;
62631;PMS5003;48703;51.248;-0.546;2022-11-15T02:55:35;2.74;1.89;
62631;PMS5003;48703;51.248;-0.546;2022-11-15T02:58:52;2.89;2.29;
62631;PMS5003;48703;51.248;-0.546;2022-11-15T03:01:46;2.00;1.57;
62631;PMS5003;48703;51.248;-0.546;2022-11-15T03:04:44;3.29;1.70;
62631;PMS5003;48703;51.248;-0.546;2022-11-15T03:07:48;1.97;1.97;
62631;PMS5003;48703;51.248;-0.546;2022-11-15T03:10:45;2.93;2.00;
62631;PMS5003;48703;51.248;-0.546;2022-11-15T03:13:46;2.06;1.90;
62631;PMS5003;48703;51.248;-0.546;2022-11-15T03:16:47;2.19;1.41;
62631;PMS5003;48703;51.248;-0.546;2022-11-15T03:19:48;1.37;1.31;
62631;PMS5003;48703;51.248;-0.546;2022-11-15T03:22:49;2.23;1.83;
62631;PMS5003;48703;51.248;-0.546;2022-11-15T03:25:51;2.66;1.59;
62631;PMS5003;48703;51.248;-0.546;2022-11-15T03:28:53;2.41;2.19;
62631;PMS5003;48703;51.248;-0.546;2022-11-15T03:31:55;1.61;1.61;
62631;PMS5003;48703;51.248;-0.546;2022-11-15T03:34:56;2.84;2.30;
62631;PMS5003;48703;51.248;-0.546;2022-11-15T03:37:58;1.90;1.66;
62631;PMS5003;48703;51.248;-0.546;2022-11-15T03:40:59;2.13;1.63;
62631;PMS5003;48703;51.248;-0.546;2022-11-15T03:44:02;2.47;1.96;
62631;PMS5003;48703;51.248;-0.546;2022-11-15T03:47:03;2.60;0.87;
62631;PMS5003;48703;51.248;-0.546;2022-11-15T03:50:04;2.17;2.17;
62631;PMS5003;48703;51.248;-0.546;2022-11-15T03:53:05;2.11;1.33;
62631;PMS5003;48703;51.248;-0.546;2022-11-15T03:56:06;1.81;1.57;
62631;PMS5003;48703;51.248;-0.546;2022-11-15T03:59:08;2.90;1.74;
62631;PMS5003;48703;51.248;-0.546;2022-11-15T04:02:09;2.10;2.10;
62631;PMS5003;48703;51.248;-0.546;2022-11-15T04:05:11;1.96;1.40;
62631;PMS5003;48703;51.248;-0.546;2022-11-15T04:08:13;3.17;1.37;
62631;PMS5003;48703;51.248;-0.546;2022-11-15T04:11:14;2.87;1.64;
62631;PMS5003;48703;51.248;-0.546;2022-11-15T04:14:16;2.71;1.56;
62631;PMS5003;48703;51.248;-0.546;2022-11-15T04:17:17;4.44;2.10;
62631;PMS5003;48703;51.248;-0.546;2022-11-15T04:20:20;1.90;1.73;
62631;PMS5003;48703;51.248;-0.546;2022-11-15T04:23:21;2.10;1.97;
62631;PMS5003;48703;51.248;-0.546;2022-11-15T04:26:22;2.99;1.79;
62631;PMS5003;48703;51.248;-0.546;2022-11-15T04:29:24;1.73;1.01;
62631;PMS5003;48703;51.248;-0.546;2022-11-15T04:32:26;2.73;2.14;
62631;PMS5003;48703;51.248;-0.546;2022-11-15T04:35:27;3.11;2.16;
62631;PMS5003;48703;51.248;-0.546;2022-11-15T04:38:29;2.59;1.94;
62631;PMS5003;48703;51.248;-0.546;2022-11-15T04:41:30;3.07;2.50;
62631;PMS5003;48703;51.248;-0.546;2022-11-15T04:44:32;2.50;1.79;
62631;PMS5003;48703;51.248;-0.546;2022-11-15T04:47:34;3.56;2.83;
62631;PMS5003;48703;51.248;-0.546;2022-11-15T04:50:35;4.11;2.69;
62631;PMS5003;48703;51.248;-0.546;2022-11-15T04:53:37;2.89;1.83;
62631;PMS5003;48703;51.248;-0.546;2022-11-15T04:56:38;3.33;2.41;
62631;PMS5003;48703;51.248;-0.546;2022-11-15T04:59:40;3.16;2.09;
62631;PMS5003;48703;51.248;-0.546;2022-11-15T05:02:42;2.51;1.96;
62631;PMS5003;48703;51.248;-0.546;2022-11-15T05:05:43;2.46;1.64;
62631;PMS5003;48703;51.248;-0.546;2022-11-15T05:08:45;3.00;2.57;
62631;PMS5003;48703;51.248;-0.546;2022-11-15T05:11:46;2.47;2.01;
62631;PMS5003;48703;51.248;-0.546;2022-11-15T05:14:48;2.10;2.00;
62631;PMS5003;48703;51.248;-0.546;2022-11-15T05:17:49;4.30;2.24;
62631;PMS5003;48703;51.248;-0.546;2022-11-15T05:20:51;3.11;2.24;
62631;PMS5003;48703;51.248;-0.546;2022-11-15T05:23:53;1.86;1.37;
62631;PMS5003;48703;51.248;-0.546;2022-11-15T05:26:54;2.59;2.59;
62631;PMS5003;48703;51.248;-0.546;2022-11-15T05:29:56;3.79;2.34;
62631;PMS5003;48703;51.248;-0.546;2022-11-15T05:32:58;3.84;3.10;
62631;PMS5003;48703;51.248;-0.546;2022-11-15T05:36:00;2.84;2.69;
62631;PMS5003;48703;51.248;-0.546;2022-11-15T05:39:01;1.93;1.93;
62631;PMS5003;48703;51.248;-0.546;2022-11-15T05:42:04;3.96;3.09;
62631;PMS5003;48703;51.248;-0.546;2022-11-15T05:45:05;2.67;2.07;
62631;PMS5003;48703;51.248;-0.546;2022-11-15T05:48:06;4.23;2.27;
62631;PMS5003;48703;51.248;-0.546;2022-11-15T05:51:07;2.80;2.80;
62631;PMS5003;48703;51.248;-0.546;2022-11-15T05:54:09;3.43;2.73;
62631;PMS5003;48703;51.248;-0.546;2022-11-15T05:57:10;3.81;2.14;
62631;PMS5003;48703;51.248;-0.546;2022-11-15T06:00:12;3.54;1.93;
62631;PMS5003;48703;51.248;-0.546;2022-11-15T06:03:13;2.39;2.17;
62631;PMS5003;48703;51.248;-0.546;2022-11-15T06:06:15;1.76;1.76;
62631;PMS5003;48703;51.248;-0.546;2022-11-15T06:09:17;4.93;2.53;
62631;PMS5003;48703;51.248;-0.546;2022-11-15T06:12:18;3.54;2.00;
62631;PMS5003;48703;51.248;-0.546;2022-11-15T06:15:20;2.76;2.76;
62631;PMS5003;48703;51.248;-0.546;2022-11-15T06:18:21;3.33;2.14;
62631;PMS5003;48703;51.248;-0.546;2022-11-15T06:21:23;3.41;2.19;
62631;PMS5003;48703;51.248;-0.546;2022-11-15T06:24:25;2.86;2.49;
62631;PMS5003;48703;51.248;-0.546;2022-11-15T06:27:26;2.34;1.94;
62631;PMS5003;48703;51.248;-0.546;2022-11-15T06:30:28;1.53;1.53;
62631;PMS5003;48703;51.248;-0.546;2022-11-15T06:33:30;2.96;2.71;
62631;PMS5003;48703;51.248;-0.546;2022-11-15T06:36:33;2.74;2.56;
62631;PMS5003;48703;51.248;-0.546;2022-11-15T06:39:33;2.97;1.94;
62631;PMS5003;48703;51.248;-0.546;2022-11-15T06:42:34;2.51;2.36;
62631;PMS5003;48703;51.248;-0.546;2022-11-15T06:45:36;3.89;2.79;
62631;PMS5003;48703;51.248;-0.546;2022-11-15T06:48:37;2.59;1.77;
62631;PMS5003;48703;51.248;-0.546;2022-11-15T06:51:39;1.64;1.20;
62631;PMS5003;48703;51.248;-0.546;2022-11-15T06:54:41;0.89;0.77;
62631;PMS5003;48703;51.248;-0.546;2022-11-15T06:57:46;1.29;0.86;
62631;PMS5003;48703;51.248;-0.546;2022-11-15T07:00:44;0.76;0.54;
62631;PMS5003;48703;51.248;-0.546;2022-11-15T07:03:45;1.59;1.43;
62631;PMS5003;48703;51.248;-0.546;2022-11-15T07:06:47;1.44;1.01;
62631;PMS5003;48703;51.248;-0.546;2022-11-15T07:09:49;1.46;0.94;
62631;PMS5003;48703;51.248;-0.546;2022-11-15T07:12:50;1.46;1.46;
62631;PMS5003;48703;51.248;-0.546;2022-11-15T07:15:52;1.07;0.77;
62631;PMS5003;48703;51.248;-0.546;2022-11-15T07:18:53;1.23;1.23;
62631;PMS5003;48703;51.248;-0.546;2022-11-15T07:21:55;0.97;0.63;
62631;PMS5003;48703;51.248;-0.546;2022-11-15T07:24:56;1.50;0.94;
62631;PMS5003;48703;51.248;-0.546;2022-11-15T07:27:58;1.03;0.93;
62631;PMS5003;48703;51.248;-0.546;2022-11-15T07:31:01;0.14;0.14;
62631;PMS5003;48703;51.248;-0.546;2022-11-15T07:34:01;1.07;1.07;
62631;PMS5003;48703;51.248;-0.546;2022-11-15T07:37:02;0.47;0.47;
62631;PMS5003;48703;51.248;-0.546;2022-11-15T07:40:05;1.77;0.79;
62631;PMS5003;48703;51.248;-0.546;2022-11-15T07:43:06;0.69;0.51;
62631;PMS5003;48703;51.248;-0.546;2022-11-15T07:46:08;0.41;0.41;
62631;PMS5003;48703;51.248;-0.546;2022-11-15T07:49:09;0.74;0.40;
62631;PMS5003;48703;51.248;-0.546;2022-11-15T07:52:10;1.03;0.60;
62631;PMS5003;48703;51.248;-0.546;2022-11-15T07:55:12;0.73;0.60;
62631;PMS5003;48703;51.248;-0.546;2022-11-15T07:58:14;0.81;0.81;
62631;PMS5003;48703;51.248;-0.546;2022-11-15T08:01:15;0.27;0.27;
62631;PMS5003;48703;51.248;-0.546;2022-11-15T08:04:17;0.97;0.97;
62631;PMS5003;48703;51.248;-0.546;2022-11-15T08:07:18;0.90;0.90;
62631;PMS5003;48703;51.248;-0.546;2022-11-15T08:10:20;0.66;0.66;
62631;PMS5003;48703;51.248;-0.546;2022-11-15T08:13:21;1.40;0.96;
62631;PMS5003;48703;51.248;-0.546;2022-11-15T08:16:23;2.09;0.84;
62631;PMS5003;48703;51.248;-0.546;2022-11-15T08:19:25;0.71;0.71;
62631;PMS5003;48703;51.248;-0.546;2022-11-15T08:22:26;1.39;0.87;
62631;PMS5003;48703;51.248;-0.546;2022-11-15T08:25:29;0.43;0.43;
62631;PMS5003;48703;51.248;-0.546;2022-11-15T08:28:29;1.19;1.19;
62631;PMS5003;48703;51.248;-0.546;2022-11-15T08:31:31;0.57;0.57;
62631;PMS5003;48703;51.248;-0.546;2022-11-15T08:34:33;1.34;0.83;
62631;PMS5003;48703;51.248;-0.546;2022-11-15T08:37:34;0.97;0.97;
62631;PMS5003;48703;51.248;-0.546;2022-11-15T08:40:36;0.99;0.99;
62631;PMS5003;48703;51.248;-0.546;2022-11-15T08:43:37;0.36;0.36;
62631;PMS5003;48703;51.248;-0.546;2022-11-15T08:46:39;1.27;0.81;
62631;PMS5003;48703;51.248;-0.546;2022-11-15T08:49:40;0.73;0.73;
62631;PMS5003;48703;51.248;-0.546;2022-11-15T08:52:42;1.49;0.96;
62631;PMS5003;48703;51.248;-0.546;2022-11-15T08:55:44;0.49;0.49;
62631;PMS5003;48703;51.248;-0.546;2022-11-15T08:58:45;2.94;1.96;
62631;PMS5003;48703;51.248;-0.546;2022-11-15T09:01:47;1.60;1.60;
62631;PMS5003;48703;51.248;-0.546;2022-11-15T09:04:48;1.40;1.23;
62631;PMS5003;48703;51.248;-0.546;2022-11-15T09:07:52;0.79;0.74;
62631;PMS5003;48703;51.248;-0.546;2022-11-15T09:10:52;1.81;1.20;
62631;PMS5003;48703;51.248;-0.546;2022-11-15T09:13:53;2.44;1.00;
62631;PMS5003;48703;51.248;-0.546;2022-11-15T09:16:55;1.49;0.93;
62631;PMS5003;48703;51.248;-0.546;2022-11-15T09:19:56;1.77;1.00;
62631;PMS5003;48703;51.248;-0.546;2022-11-15T09:22:59;1.69;0.87;
62631;PMS5003;48703;51.248;-0.546;2022-11-15T09:26:00;0.31;0.31;
62631;PMS5003;48703;51.248;-0.546;2022-11-15T09:29:01;1.44;1.06;
62631;PMS5003;48703;51.248;-0.546;2022-11-15T09:32:02;0.29;0.29;
62631;PMS5003;48703;51.248;-0.546;2022-11-15T09:35:04;1.43;0.64;
62631;PMS5003;48703;51.248;-0.546;2022-11-15T09:38:05;1.63;1.29;
62631;PMS5003;48703;51.248;-0.546;2022-11-15T09:41:12;1.97;1.16;
62631;PMS5003;48703;51.248;-0.546;2022-11-15T09:44:13;1.71;1.24;
62631;PMS5003;48703;51.248;-0.546;2022-11-15T09:47:22;1.07;0.43;
62631;PMS5003;48703;51.248;-0.546;2022-11-15T09:50:12;0.47;0.39;
62631;PMS5003;48703;51.248;-0.546;2022-11-15T09:53:20;1.41;0.51;
62631;PMS5003;48703;51.248;-0.546;2022-11-15T09:56:16;1.77;1.24;
62631;PMS5003;48703;51.248;-0.546;2022-11-15T09:59:20;0.87;0.87;
62631;PMS5003;48703;51.248;-0.546;2022-11-15T10:02:22;1.24;0.81;
62631;PMS5003;48703;51.248;-0.546;2022-11-15T10:05:22;1.19;0.71;
62631;PMS5003;48703;51.248;-0.546;2022-11-15T10:08:25;2.20;0.96;
62631;PMS5003;48703;51.248;-0.546;2022-11-15T10:11:23;1.06;0.71;
62631;PMS5003;48703;51.248;-0.546;2022-11-15T10:14:25;1.24;1.01;
62631;PMS5003;48703;51.248;-0.546;2022-11-15T10:17:31;1.90;1.54;
62631;PMS5003;48703;51.248;-0.546;2022-11-15T10:20:28;0.96;0.96;
62631;PMS5003;48703;51.248;-0.546;2022-11-15T10:23:29;1.34;0.90;
62631;PMS5003;48703;51.248;-0.546;2022-11-15T10:26:30;0.79;0.79;
62631;PMS5003;48703;51.248;-0.546;2022-11-15T10:29:32;1.09;0.66;
62631;PMS5003;48703;51.248;-0.546;2022-11-15T10:32:34;2.07;1.33;
62631;PMS5003;48703;51.248;-0.546;2022-11-15T10:35:36;1.37;0.97;
62631;PMS5003;48703;51.248;-0.546;2022-11-15T10:38:47;1.60;0.74;
62631;PMS5003;48703;51.248;-0.546;2022-11-15T10:41:39;1.59;0.99;
62631;PMS5003;48703;51.248;-0.546;2022-11-15T10:44:41;2.26;1.51;
62631;PMS5003;48703;51.248;-0.546;2022-11-15T10:47:41;2.84;2.71;
62631;PMS5003;48703;51.248;-0.546;2022-11-15T10:50:43;2.83;2.39;
62631;PMS5003;48703;51.248;-0.546;2022-11-15T10:53:44;1.20;1.20;
62631;PMS5003;48703;51.248;-0.546;2022-11-15T10:56:48;2.19;1.26;
62631;PMS5003;48703;51.248;-0.546;2022-11-15T10:59:48;1.03;0.90;
62631;PMS5003;48703;51.248;-0.546;2022-11-15T11:02:56;2.17;1.37;
62631;PMS5003;48703;51.248;-0.546;2022-11-15T11:05:52;1.03;1.03;
62631;PMS5003;48703;51.248;-0.546;2022-11-15T11:08:53;0.84;0.84;
62631;PMS5003;48703;51.248;-0.546;2022-11-15T11:11:54;0.53;0.53;
62631;PMS5003;48703;51.248;-0.546;2022-11-15T11:14:55;0.16;0.16;
62631;PMS5003;48703;51.248;-0.546;2022-11-15T11:17:58;2.17;1.56;
62631;PMS5003;48703;51.248;-0.546;2022-11-15T11:20:59;2.27;0.93;
62631;PMS5003;48703;51.248;-0.546;2022-11-15T11:24:02;2.59;1.81;
62631;PMS5003;48703;51.248;-0.546;2022-11-15T11:27:06;0.94;0.30;
62631;PMS5003;48703;51.248;-0.546;2022-11-15T11:30:06;1.61;0.33;
62631;PMS5003;48703;51.248;-0.546;2022-11-15T11:33:07;0.71;0.27;
62631;PMS5003;48703;51.248;-0.546;2022-11-15T11:36:11;1.37;1.37;
62631;PMS5003;48703;51.248;-0.546;2022-11-15T11:39:16;1.96;0.90;
62631;PMS5003;48703;51.248;-0.546;2022-11-15T11:42:10;1.41;1.41;
62631;PMS5003;48703;51.248;-0.546;2022-11-15T11:45:15;1.76;1.09;
62631;PMS5003;48703;51.248;-0.546;2022-11-15T11:48:13;1.29;1.01;
62631;PMS5003;48703;51.248;-0.546;2022-11-15T11:51:16;0.70;0.64;
62631;PMS5003;48703;51.248;-0.546;2022-11-15T11:54:17;1.33;0.94;
62631;PMS5003;48703;51.248;-0.546;2022-11-15T11:57:28;0.83;0.83;
62631;PMS5003;48703;51.248;-0.546;2022-11-15T12:00:20;1.84;1.26;
62631;PMS5003;48703;51.248;-0.546;2022-11-15T12:03:22;1.96;1.70;
62631;PMS5003;48703;51.248;-0.546;2022-11-15T12:06:24;2.31;2.31;
62631;PMS5003;48703;51.248;-0.546;2022-11-15T12:09:29;2.49;1.39;
62631;PMS5003;48703;51.248;-0.546;2022-11-15T12:12:27;4.00;0.94;
62631;PMS5003;48703;51.248;-0.546;2022-11-15T12:15:27;1.43;1.06;
62631;PMS5003;48703;51.248;-0.546;2022-11-15T12:18:27;3.52;2.39;
62631;PMS5003;48703;51.248;-0.546;2022-11-15T12:21:32;2.61;2.35;
62631;PMS5003;48703;51.248;-0.546;2022-11-15T12:24:33;3.81;2.09;
62631;PMS5003;48703;51.248;-0.546;2022-11-15T12:27:33;1.93;1.79;
62631;PMS5003;48703;51.248;-0.546;2022-11-15T12:30:39;3.29;3.11;
62631;PMS5003;48703;51.248;-0.546;2022-11-15T12:33:37;0.96;0.70;
62631;PMS5003;48703;51.248;-0.546;2022-11-15T12:36:37;1.76;0.99;
62631;PMS5003;48703;51.248;-0.546;2022-11-15T12:41:12;2.14;1.39;
62631;PMS5003;48703;51.248;-0.546;2022-11-15T12:42:40;1.37;1.37;
62631;PMS5003;48703;51.248;-0.546;2022-11-15T12:45:25;2.99;2.29;
62631;PMS5003;48703;51.248;-0.546;2022-11-15T12:47:42;0.37;0.37;
62631;PMS5003;48703;51.248;-0.546;2022-11-15T12:50:57;1.80;0.86;
62631;PMS5003;48703;51.248;-0.546;2022-11-15T12:53:45;1.17;0.79;
62631;PMS5003;48703;51.248;-0.546;2022-11-15T12:56:48;1.19;0.97;
62631;PMS5003;48703;51.248;-0.546;2022-11-15T12:59:48;1.67;0.51;
62631;PMS5003;48703;51.248;-0.546;2022-11-15T13:02:50;1.13;0.70;
62631;PMS5003;48703;51.248;-0.546;2022-11-15T13:05:58;1.17;0.90;
62631;PMS5003;48703;51.248;-0.546;2022-11-15T13:08:53;2.04;0.36;
62631;PMS5003;48703;51.248;-0.546;2022-11-15T13:11:55;1.23;0.99;
62631;PMS5003;48703;51.248;-0.546;2022-11-15T13:14:57;1.10;1.10;
62631;PMS5003;48703;51.248;-0.546;2022-11-15T13:17:58;0.00;0.00;
62631;PMS5003;48703;51.248;-0.546;2022-11-15T13:20:59;1.63;0.51;
62631;PMS5003;48703;51.248;-0.546;2022-11-15T13:24:00;1.09;1.09;
62631;PMS5003;48703;51.248;-0.546;2022-11-15T13:27:02;1.14;0.04;
62631;PMS5003;48703;51.248;-0.546;2022-11-15T13:30:04;0.77;0.13;
62631;PMS5003;48703;51.248;-0.546;2022-11-15T13:33:07;0.31;0.31;
62631;PMS5003;48703;51.248;-0.546;2022-11-15T13:36:07;0.61;0.40;
62631;PMS5003;48703;51.248;-0.546;2022-11-15T13:39:12;0.36;0.27;
62631;PMS5003;48703;51.248;-0.546;2022-11-15T13:42:13;1.47;0.81;
62631;PMS5003;48703;51.248;-0.546;2022-11-15T13:45:13;0.56;0.56;
62631;PMS5003;48703;51.248;-0.546;2022-11-15T13:48:13;0.83;0.83;
62631;PMS5003;48703;51.248;-0.546;2022-11-15T13:51:16;0.67;0.26;
62631;PMS5003;48703;51.248;-0.546;2022-11-15T13:54:17;0.39;0.39;
62631;PMS5003;48703;51.248;-0.546;2022-11-15T13:57:18;0.07;0.07;
62631;PMS5003;48703;51.248;-0.546;2022-11-15T14:00:25;1.13;0.54;
62631;PMS5003;48703;51.248;-0.546;2022-11-15T14:03:21;0.74;0.36;
62631;PMS5003;48703;51.248;-0.546;2022-11-15T14:06:23;1.67;0.81;
62631;PMS5003;48703;51.248;-0.546;2022-11-15T14:09:33;4.37;2.84;
62631;PMS5003;48703;51.248;-0.546;2022-11-15T14:12:27;5.64;5.35;
62631;PMS5003;48703;51.248;-0.546;2022-11-15T14:15:28;8.77;6.47;
62631;PMS5003;48703;51.248;-0.546;2022-11-15T14:18:39;6.56;5.14;
62631;PMS5003;48703;51.248;-0.546;2022-11-15T14:21:29;4.03;3.26;
62631;PMS5003;48703;51.248;-0.546;2022-11-15T14:24:31;4.30;2.83;
62631;PMS5003;48703;51.248;-0.546;2022-11-15T14:27:32;1.36;1.34;
62631;PMS5003;48703;51.248;-0.546;2022-11-15T14:30:34;1.20;0.81;
62631;PMS5003;48703;51.248;-0.546;2022-11-15T14:33:36;0.43;0.43;
62631;PMS5003;48703;51.248;-0.546;2022-11-15T14:36:37;1.19;0.76;
62631;PMS5003;48703;51.248;-0.546;2022-11-15T14:39:38;1.16;0.77;
62631;PMS5003;48703;51.248;-0.546;2022-11-15T14:42:40;0.56;0.29;
62631;PMS5003;48703;51.248;-0.546;2022-11-15T14:45:42;1.26;0.43;
62631;PMS5003;48703;51.248;-0.546;2022-11-15T14:48:43;1.77;0.87;
62631;PMS5003;48703;51.248;-0.546;2022-11-15T14:51:44;0.60;0.39;
62631;PMS5003;48703;51.248;-0.546;2022-11-15T14:54:46;1.37;1.03;
62631;PMS5003;48703;51.248;-0.546;2022-11-15T14:57:48;0.93;0.89;
62631;PMS5003;48703;51.248;-0.546;2022-11-15T15:00:49;1.80;0.67;
62631;PMS5003;48703;51.248;-0.546;2022-11-15T15:03:51;0.63;0.33;
62631;PMS5003;48703;51.248;-0.546;2022-11-15T15:06:52;0.29;0.14;
62631;PMS5003;48703;51.248;-0.546;2022-11-15T15:09:54;0.56;0.56;
62631;PMS5003;48703;51.248;-0.546;2022-11-15T15:12:55;1.41;0.86;
62631;PMS5003;48703;51.248;-0.546;2022-11-15T15:15:57;1.71;1.20;
62631;PMS5003;48703;51.248;-0.546;2022-11-15T15:18:58;0.44;0.44;
62631;PMS5003;48703;51.248;-0.546;2022-11-15T15:22:00;2.14;1.37;
62631;PMS5003;48703;51.248;-0.546;2022-11-15T15:25:01;1.20;0.59;
62631;PMS5003;48703;51.248;-0.546;2022-11-15T15:28:02;0.47;0.47;
62631;PMS5003;48703;51.248;-0.546;2022-11-15T15:31:04;1.37;0.91;
62631;PMS5003;48703;51.248;-0.546;2022-11-15T15:34:06;0.76;0.76;
62631;PMS5003;48703;51.248;-0.546;2022-11-15T15:37:08;1.17;1.17;
62631;PMS5003;48703;51.248;-0.546;2022-11-15T15:40:10;2.07;2.07;
62631;PMS5003;48703;51.248;-0.546;2022-11-15T15:43:10;1.36;1.36;
62631;PMS5003;48703;51.248;-0.546;2022-11-15T15:46:13;2.50;2.00;
62631;PMS5003;48703;51.248;-0.546;2022-11-15T15:49:14;1.94;1.10;
62631;PMS5003;48703;51.248;-0.546;2022-11-15T15:52:15;1.97;1.00;
62631;PMS5003;48703;51.248;-0.546;2022-11-15T15:55:16;0.66;0.60;
62631;PMS5003;48703;51.248;-0.546;2022-11-15T15:58:18;0.67;0.51;
62631;PMS5003;48703;51.248;-0.546;2022-11-15T16:01:19;0.86;0.86;
62631;PMS5003;48703;51.248;-0.546;2022-11-15T16:04:21;1.34;0.84;
62631;PMS5003;48703;51.248;-0.546;2022-11-15T16:07:23;0.27;0.24;
62631;PMS5003;48703;51.248;-0.546;2022-11-15T16:10:25;0.59;0.59;
62631;PMS5003;48703;51.248;-0.546;2022-11-15T16:13:26;0.54;0.54;
62631;PMS5003;48703;51.248;-0.546;2022-11-15T16:16:27;0.50;0.50;
62631;PMS5003;48703;51.248;-0.546;2022-11-15T16:19:29;0.66;0.63;
62631;PMS5003;48703;51.248;-0.546;2022-11-15T16:22:30;0.23;0.09;
62631;PMS5003;48703;51.248;-0.546;2022-11-15T16:25:33;0.30;0.30;
62631;PMS5003;48703;51.248;-0.546;2022-11-15T16:28:33;0.51;0.31;
62631;PMS5003;48703;51.248;-0.546;2022-11-15T16:31:35;0.03;0.00;
62631;PMS5003;48703;51.248;-0.546;2022-11-15T16:34:37;0.31;0.00;
62631;PMS5003;48703;51.248;-0.546;2022-11-15T16:37:38;0.96;0.91;
62631;PMS5003;48703;51.248;-0.546;2022-11-15T16:40:40;0.99;0.24;
62631;PMS5003;48703;51.248;-0.546;2022-11-15T16:43:41;0.54;0.54;
62631;PMS5003;48703;51.248;-0.546;2022-11-15T16:46:43;3.14;2.04;
62631;PMS5003;48703;51.248;-0.546;2022-11-15T16:49:44;2.27;2.11;
62631;PMS5003;48703;51.248;-0.546;2022-11-15T16:52:46;3.76;2.61;
62631;PMS5003;48703;51.248;-0.546;2022-11-15T16:55:47;2.11;1.53;
62631;PMS5003;48703;51.248;-0.546;2022-11-15T16:58:49;1.44;1.44;
62631;PMS5003;48703;51.248;-0.546;2022-11-15T17:01:50;1.80;1.10;
62631;PMS5003;48703;51.248;-0.546;2022-11-15T17:04:52;1.33;1.33;
62631;PMS5003;48703;51.248;-0.546;2022-11-15T17:07:54;1.56;0.70;
62631;PMS5003;48703;51.248;-0.546;2022-11-15T17:10:55;1.40;1.06;
62631;PMS5003;48703;51.248;-0.546;2022-11-15T17:13:57;0.96;0.14;
62631;PMS5003;48703;51.248;-0.546;2022-11-15T17:16:58;0.96;0.46;
62631;PMS5003;48703;51.248;-0.546;2022-11-15T17:20:00;1.47;1.00;
62631;PMS5003;48703;51.248;-0.546;2022-11-15T17:23:02;1.09;0.83;
62631;PMS5003;48703;51.248;-0.546;2022-11-15T17:26:04;0.39;0.39;
62631;PMS5003;48703;51.248;-0.546;2022-11-15T17:29:05;0.51;0.51;
62631;PMS5003;48703;51.248;-0.546;2022-11-15T17:32:06;1.23;0.84;
62631;PMS5003;48703;51.248;-0.546;2022-11-15T17:35:08;0.51;0.20;
62631;PMS5003;48703;51.248;-0.546;2022-11-15T17:38:09;0.86;0.50;
62631;PMS5003;48703;51.248;-0.546;2022-11-15T17:41:11;1.81;1.20;
62631;PMS5003;48703;51.248;-0.546;2022-11-15T17:44:12;0.19;0.19;
62631;PMS5003;48703;51.248;-0.546;2022-11-15T17:47:14;1.33;0.60;
62631;PMS5003;48703;51.248;-0.546;2022-11-15T17:50:16;1.01;0.87;
62631;PMS5003;48703;51.248;-0.546;2022-11-15T17:53:17;0.43;0.43;
62631;PMS5003;48703;51.248;-0.546;2022-11-15T17:56:19;1.13;0.79;
62631;PMS5003;48703;51.248;-0.546;2022-11-15T17:59:20;0.80;0.44;
62631;PMS5003;48703;51.248;-0.546;2022-11-15T18:02:22;1.63;0.73;
62631;PMS5003;48703;51.248;-0.546;2022-11-15T18:05:23;0.57;0.57;
62631;PMS5003;48703;51.248;-0.546;2022-11-15T18:08:25;2.09;0.86;
62631;PMS5003;48703;51.248;-0.546;2022-11-15T18:11:27;1.20;1.01;
62631;PMS5003;48703;51.248;-0.546;2022-11-15T18:14:28;2.26;1.49;
62631;PMS5003;48703;51.248;-0.546;2022-11-15T18:17:30;1.74;1.74;
62631;PMS5003;48703;51.248;-0.546;2022-11-15T18:20:31;3.99;3.51;
62631;PMS5003;48703;51.248;-0.546;2022-11-15T18:23:33;7.63;5.90;
62631;PMS5003;48703;51.248;-0.546;2022-11-15T18:26:34;9.19;8.74;
62631;PMS5003;48703;51.248;-0.546;2022-11-15T18:29:36;5.01;4.76;